Time;durP1;ratioP1;P1;durP2;ratioP2;P2;SDS_P1;SDS_P2;PMS_P1;PMS_P2;Temp;Humidity;BMP_temperature;BMP_pressure;BME280_temperature;BME280_humidity;BME280_pressure;Samples;Min_cycle;Max_cycle;Signal;HPM_P1;HPM_P2
2023/11/30 00:01:44;;;;;;;;;40.00;37.50;;;;;;;;4921862;28;45432;-76
2023/11/30 00:04:10;;;;;;;;;38.75;36.00;;;;;;;;4921334;28;45312;-76
2023/11/30 00:06:39;;;;;;;;;33.50;30.25;;;;;;;;4921688;28;45365;-76
2023/11/30 00:09:04;;;;;;;;;51.75;44.50;;;;;;;;4921612;28;45153;-75
2023/11/30 00:11:29;;;;;;;;;47.00;40.00;;;;;;;;4904286;28;45272;-75
2023/11/30 00:13:54;;;;;;;;;47.75;39.75;;;;;;;;4921572;28;45265;-75
2023/11/30 00:16:19;;;;;;;;;37.50;34.50;;;;;;;;4921543;28;46312;-75
2023/11/30 00:18:45;;;;;;;;;49.00;42.00;;;;;;;;4921572;28;45213;-76
2023/11/30 00:21:10;;;;;;;;;50.25;41.50;;;;;;;;4921706;28;45314;-76
2023/11/30 00:23:35;;;;;;;;;58.00;46.50;;;;;;;;4904341;28;46071;-75
2023/11/30 00:26:00;;;;;;;;;54.75;45.50;;;;;;;;4921555;28;46423;-75
2023/11/30 00:28:25;;;;;;;;;53.00;41.00;;;;;;;;4904670;28;45335;-75
2023/11/30 00:30:50;;;;;;;;;46.50;41.00;;;;;;;;4921594;28;45197;-76
2023/11/30 00:33:16;;;;;;;;;53.75;46.00;;;;;;;;4921429;28;45257;-76
2023/11/30 00:35:41;;;;;;;;;52.25;42.25;;;;;;;;4921246;28;45363;-76
2023/11/30 00:38:06;;;;;;;;;55.20;45.60;;;;;;;;4921438;28;45129;-75
2023/11/30 00:40:31;;;;;;;;;54.25;44.00;;;;;;;;4923399;28;45390;-75
2023/11/30 00:42:56;;;;;;;;;58.00;47.20;;;;;;;;4924901;28;45217;-76
2023/11/30 00:45:21;;;;;;;;;58.00;49.25;;;;;;;;4924566;28;45224;-75
2023/11/30 00:47:47;;;;;;;;;59.25;47.50;;;;;;;;4924914;28;45218;-75
2023/11/30 00:50:12;;;;;;;;;61.75;47.00;;;;;;;;4906975;28;45301;-75
2023/11/30 00:52:37;;;;;;;;;57.00;46.50;;;;;;;;4924625;28;45423;-75
2023/11/30 00:55:03;;;;;;;;;59.25;48.50;;;;;;;;4924404;28;45994;-75
2023/11/30 00:57:28;;;;;;;;;52.00;44.25;;;;;;;;4916005;28;45328;-75
2023/11/30 00:59:53;;;;;;;;;54.75;45.00;;;;;;;;4888414;29;45515;-76
2023/11/30 01:02:18;;;;;;;;;54.60;45.20;;;;;;;;4905428;29;45572;-76
2023/11/30 01:04:43;;;;;;;;;55.75;45.50;;;;;;;;4904926;29;46339;-76
2023/11/30 01:07:09;;;;;;;;;56.00;46.00;;;;;;;;4905423;29;45392;-75
2023/11/30 01:09:36;;;;;;;;;48.50;42.00;;;;;;;;4905102;29;45454;-75
2023/11/30 01:12:01;;;;;;;;;50.00;42.00;;;;;;;;4887810;29;46169;-76
2023/11/30 01:14:27;;;;;;;;;48.50;40.50;;;;;;;;4903991;29;46179;-75
2023/11/30 01:16:52;;;;;;;;;39.80;36.20;;;;;;;;4904863;29;45395;-75
2023/11/30 01:19:17;;;;;;;;;37.75;36.50;;;;;;;;4905084;29;45273;-75
2023/11/30 01:21:42;;;;;;;;;36.00;33.25;;;;;;;;4904989;29;45340;-76
2023/11/30 01:24:07;;;;;;;;;42.50;37.75;;;;;;;;4887874;29;48402;-75
2023/11/30 01:26:33;;;;;;;;;38.25;34.25;;;;;;;;4904995;29;45497;-76
2023/11/30 01:28:58;;;;;;;;;37.75;33.25;;;;;;;;4905082;29;45313;-76
2023/11/30 01:31:23;;;;;;;;;36.75;33.75;;;;;;;;4904323;29;45388;-75
2023/11/30 01:33:48;;;;;;;;;34.75;32.75;;;;;;;;4887239;29;47928;-76
2023/11/30 01:36:14;;;;;;;;;34.75;34.25;;;;;;;;4904707;29;45205;-76
2023/11/30 01:38:42;;;;;;;;;30.50;30.25;;;;;;;;4887618;29;45311;-75
2023/11/30 01:41:07;;;;;;;;;31.75;30.00;;;;;;;;4904830;29;45218;-75
2023/11/30 01:43:32;;;;;;;;;37.50;28.00;;;;;;;;4904576;29;45326;-76
2023/11/30 01:45:57;;;;;;;;;31.00;25.00;;;;;;;;4887553;29;45306;-76
2023/11/30 01:48:23;;;;;;;;;32.00;30.67;;;;;;;;4904728;29;45186;-75
2023/11/30 01:50:48;;;;;;;;;34.00;32.67;;;;;;;;4887128;29;46981;-75
2023/11/30 01:53:14;;;;;;;;;36.00;34.67;;;;;;;;4904442;29;46579;-75
2023/11/30 01:55:40;;;;;;;;;32.25;30.50;;;;;;;;4904403;29;45279;-76
2023/11/30 01:58:05;;;;;;;;;38.50;34.75;;;;;;;;4904604;29;45319;-75
2023/11/30 02:00:31;;;;;;;;;37.50;33.50;;;;;;;;4904457;29;45280;-76
2023/11/30 02:03:00;;;;;;;;;34.33;34.33;;;;;;;;4904204;29;45321;-76
2023/11/30 02:05:25;;;;;;;;;29.25;28.50;;;;;;;;4887106;29;46110;-75
2023/11/30 02:07:51;;;;;;;;;30.00;27.67;;;;;;;;4904541;29;45302;-75
2023/11/30 02:10:16;;;;;;;;;36.25;31.25;;;;;;;;4904316;29;45281;-75
2023/11/30 02:12:41;;;;;;;;;34.25;32.25;;;;;;;;4886672;29;47381;-76
2023/11/30 02:15:06;;;;;;;;;30.75;28.25;;;;;;;;4904326;29;45329;-75
2023/11/30 02:17:32;;;;;;;;;31.00;29.75;;;;;;;;4904275;29;45293;-75
2023/11/30 02:19:57;;;;;;;;;27.50;24.25;;;;;;;;4903913;29;45619;-76
2023/11/30 02:22:22;;;;;;;;;30.67;28.67;;;;;;;;4904154;29;45834;-75
2023/11/30 02:24:47;;;;;;;;;30.67;28.00;;;;;;;;4904044;29;45325;-76
2023/11/30 02:27:12;;;;;;;;;36.00;34.33;;;;;;;;4887344;29;45477;-76
2023/11/30 02:29:38;;;;;;;;;36.50;33.50;;;;;;;;4903774;29;45292;-76
2023/11/30 02:32:03;;;;;;;;;29.00;29.00;;;;;;;;4904078;29;45616;-75
2023/11/30 02:34:28;;;;;;;;;35.67;31.67;;;;;;;;4903708;29;45327;-75
2023/11/30 02:36:53;;;;;;;;;33.33;31.00;;;;;;;;4887025;29;45526;-76
2023/11/30 02:39:19;;;;;;;;;28.75;28.75;;;;;;;;4903747;29;45301;-75
2023/11/30 02:41:44;;;;;;;;;32.25;30.75;;;;;;;;4886809;29;47440;-76
2023/11/30 02:44:09;;;;;;;;;28.00;25.33;;;;;;;;4903982;29;45305;-75
2023/11/30 02:46:35;;;;;;;;;34.00;28.00;;;;;;;;4886819;29;45364;-76
2023/11/30 02:49:00;;;;;;;;;31.50;26.75;;;;;;;;4903456;29;45408;-75
2023/11/30 02:51:25;;;;;;;;;28.00;25.33;;;;;;;;4903695;29;46178;-75
2023/11/30 02:53:50;;;;;;;;;33.00;33.00;;;;;;;;4903750;29;45297;-75
2023/11/30 02:56:15;;;;;;;;;32.25;30.25;;;;;;;;4903865;29;45333;-75
2023/11/30 02:58:40;;;;;;;;;35.33;31.33;;;;;;;;4904217;28;45415;-75
2023/11/30 03:01:06;;;;;;;;;34.25;33.25;;;;;;;;4886671;29;48209;-76
2023/11/30 03:03:31;;;;;;;;;35.25;33.00;;;;;;;;4885710;29;45652;-75
2023/11/30 03:05:56;;;;;;;;;31.50;29.50;;;;;;;;4886164;29;45744;-76
2023/11/30 03:08:21;;;;;;;;;33.50;33.50;;;;;;;;4903512;29;45566;-75
2023/11/30 03:10:46;;;;;;;;;38.00;35.75;;;;;;;;4885206;29;47657;-76
2023/11/30 03:13:12;;;;;;;;;37.25;34.50;;;;;;;;4903150;29;45841;-75
2023/11/30 03:15:44;;;;;;;;;35.25;32.75;;;;;;;;4903393;29;45636;-75
2023/11/30 03:18:10;;;;;;;;;40.00;36.00;;;;;;;;4903208;29;45291;-75
2023/11/30 03:20:35;;;;;;;;;35.50;34.50;;;;;;;;4885760;29;47926;-76
2023/11/30 03:23:01;;;;;;;;;30.00;28.75;;;;;;;;4885944;29;45482;-75
2023/11/30 03:25:26;;;;;;;;;31.00;29.33;;;;;;;;4903535;29;45357;-76
2023/11/30 03:27:51;;;;;;;;;31.00;29.75;;;;;;;;4903246;29;45341;-76
2023/11/30 03:30:16;;;;;;;;;32.00;30.33;;;;;;;;4903252;29;46077;-74
2023/11/30 03:32:41;;;;;;;;;37.25;33.25;;;;;;;;4902702;29;45283;-75
2023/11/30 03:35:07;;;;;;;;;37.25;33.75;;;;;;;;4903097;29;45373;-75
2023/11/30 03:37:32;;;;;;;;;28.33;28.00;;;;;;;;4885734;29;46634;-76
2023/11/30 03:39:57;;;;;;;;;29.67;25.67;;;;;;;;4885847;29;47572;-76
2023/11/30 03:42:22;;;;;;;;;32.00;29.67;;;;;;;;4902926;29;45323;-75
2023/11/30 03:44:47;;;;;;;;;36.75;32.50;;;;;;;;4886031;29;45237;-75
2023/11/30 03:47:12;;;;;;;;;25.00;24.00;;;;;;;;4903022;29;45607;-75
2023/11/30 03:49:38;;;;;;;;;32.75;32.75;;;;;;;;4902670;29;45395;-75
2023/11/30 03:52:03;;;;;;;;;33.75;31.25;;;;;;;;4902959;29;45271;-75
2023/11/30 03:54:28;;;;;;;;;31.00;28.00;;;;;;;;4903079;29;45296;-75
2023/11/30 03:56:53;;;;;;;;;32.75;32.25;;;;;;;;4889542;28;47373;-75
2023/11/30 03:59:18;;;;;;;;;21.25;20.50;;;;;;;;4921714;28;45346;-76
2023/11/30 04:01:44;;;;;;;;;32.33;30.00;;;;;;;;4922009;28;45349;-75
2023/11/30 04:04:09;;;;;;;;;24.25;21.00;;;;;;;;4921847;28;45284;-75
2023/11/30 04:06:34;;;;;;;;;27.67;26.00;;;;;;;;4921796;28;45213;-76
2023/11/30 04:08:59;;;;;;;;;31.00;28.67;;;;;;;;4921646;28;45413;-76
2023/11/30 04:11:25;;;;;;;;;29.67;26.00;;;;;;;;4921679;28;45238;-75
2023/11/30 04:13:50;;;;;;;;;29.67;27.00;;;;;;;;4921976;28;45189;-75
2023/11/30 04:16:16;;;;;;;;;25.67;24.67;;;;;;;;4907253;28;46091;-76
2023/11/30 04:18:41;;;;;;;;;28.00;27.00;;;;;;;;4924687;28;46229;-75
2023/11/30 04:21:07;;;;;;;;;28.00;27.33;;;;;;;;4925122;28;45374;-76
2023/11/30 04:23:32;;;;;;;;;24.00;22.67;;;;;;;;4907939;28;45526;-75
2023/11/30 04:25:57;;;;;;;;;39.33;32.00;;;;;;;;4907552;28;46168;-75
2023/11/30 04:28:22;;;;;;;;;28.67;25.67;;;;;;;;4925031;28;45355;-75
2023/11/30 04:30:47;;;;;;;;;28.00;26.67;;;;;;;;4924875;28;45324;-75
2023/11/30 04:33:13;;;;;;;;;28.00;25.00;;;;;;;;4907758;28;45349;-76
2023/11/30 04:35:38;;;;;;;;;28.33;27.67;;;;;;;;4924692;28;45593;-76
2023/11/30 04:38:03;;;;;;;;;28.67;25.33;;;;;;;;4924645;28;45452;-75
2023/11/30 04:40:28;;;;;;;;;29.00;28.33;;;;;;;;4924765;28;45407;-75
2023/11/30 04:42:54;;;;;;;;;34.50;30.25;;;;;;;;4907408;28;45376;-75
2023/11/30 04:45:19;;;;;;;;;28.33;24.67;;;;;;;;4906002;28;45359;-76
2023/11/30 04:47:44;;;;;;;;;24.67;24.67;;;;;;;;4905443;29;45339;-76
2023/11/30 04:50:12;;;;;;;;;27.67;24.67;;;;;;;;4887250;29;45893;-76
2023/11/30 04:52:37;;;;;;;;;26.33;24.67;;;;;;;;4888010;29;45369;-75
2023/11/30 04:55:03;;;;;;;;;30.00;25.67;;;;;;;;4905284;29;45339;-75
2023/11/30 04:57:28;;;;;;;;;20.00;20.00;;;;;;;;4913771;28;46648;-75
2023/11/30 04:59:53;;;;;;;;;25.75;24.50;;;;;;;;4924637;28;45324;-75
2023/11/30 05:02:18;;;;;;;;;28.67;25.00;;;;;;;;4924631;28;45365;-76
2023/11/30 05:04:43;;;;;;;;;30.00;27.00;;;;;;;;4924070;28;45499;-75
2023/11/30 05:07:08;;;;;;;;;24.33;23.00;;;;;;;;4924348;28;45422;-75
2023/11/30 05:09:34;;;;;;;;;24.25;20.50;;;;;;;;4924412;28;45428;-75
2023/11/30 05:11:59;;;;;;;;;23.33;23.33;;;;;;;;4924330;28;45234;-75
2023/11/30 05:14:24;;;;;;;;;26.33;25.00;;;;;;;;4924394;28;45431;-75
2023/11/30 05:16:49;;;;;;;;;28.33;20.67;;;;;;;;4906764;28;47275;-75
2023/11/30 05:19:15;;;;;;;;;23.67;20.00;;;;;;;;4906572;28;45413;-75
2023/11/30 05:21:40;;;;;;;;;26.33;26.00;;;;;;;;4907244;28;45526;-75
2023/11/30 05:24:05;;;;;;;;;27.33;23.33;;;;;;;;4924075;28;45381;-76
2023/11/30 05:26:31;;;;;;;;;23.00;23.00;;;;;;;;4923468;28;45226;-76
2023/11/30 05:28:56;;;;;;;;;20.00;19.00;;;;;;;;4904289;28;46074;-76
2023/11/30 05:31:21;;;;;;;;;27.67;24.00;;;;;;;;4905219;29;45261;-76
2023/11/30 05:33:47;;;;;;;;;29.00;24.00;;;;;;;;4886189;29;46050;-76
2023/11/30 05:36:12;;;;;;;;;24.67;22.67;;;;;;;;4903772;29;46552;-75
2023/11/30 05:38:37;;;;;;;;;21.33;20.67;;;;;;;;4904558;29;45391;-75
2023/11/30 05:41:02;;;;;;;;;24.33;22.67;;;;;;;;4887941;29;45313;-75
2023/11/30 05:43:27;;;;;;;;;27.00;26.00;;;;;;;;4904820;29;45225;-76
2023/11/30 05:45:53;;;;;;;;;22.00;22.00;;;;;;;;4904719;29;45375;-76
2023/11/30 05:48:18;;;;;;;;;26.00;25.33;;;;;;;;4904659;29;45544;-76
2023/11/30 05:50:43;;;;;;;;;23.67;21.00;;;;;;;;4887543;29;45493;-75
2023/11/30 05:53:09;;;;;;;;;20.00;18.67;;;;;;;;4904661;29;45348;-76
2023/11/30 05:55:35;;;;;;;;;26.33;22.67;;;;;;;;4904443;29;45318;-75
2023/11/30 05:58:00;;;;;;;;;24.00;24.00;;;;;;;;4917001;28;45335;-75
2023/11/30 06:00:26;;;;;;;;;30.33;26.67;;;;;;;;4923542;28;45475;-76
2023/11/30 06:02:51;;;;;;;;;30.33;24.00;;;;;;;;4923589;28;45236;-76
2023/11/30 06:05:17;;;;;;;;;28.67;25.67;;;;;;;;4923016;28;45426;-75
2023/11/30 06:07:44;;;;;;;;;29.00;26.67;;;;;;;;4906211;28;45377;-76
2023/11/30 06:10:10;;;;;;;;;29.33;25.00;;;;;;;;4923456;28;45168;-76
2023/11/30 06:12:36;;;;;;;;;24.50;18.25;;;;;;;;4905872;28;46551;-75
2023/11/30 06:15:01;;;;;;;;;27.33;26.00;;;;;;;;4923231;28;45313;-75
2023/11/30 06:17:26;;;;;;;;;27.33;25.67;;;;;;;;4905956;28;45971;-75
2023/11/30 06:19:51;;;;;;;;;24.00;23.67;;;;;;;;4922975;28;45296;-75
2023/11/30 06:22:16;;;;;;;;;27.00;26.25;;;;;;;;4906203;28;46020;-76
2023/11/30 06:24:42;;;;;;;;;32.00;28.67;;;;;;;;4923164;28;45400;-75
2023/11/30 06:27:07;;;;;;;;;29.00;26.33;;;;;;;;4923327;28;45200;-75
2023/11/30 06:29:32;;;;;;;;;28.25;26.25;;;;;;;;4923302;28;45184;-76
2023/11/30 06:31:58;;;;;;;;;28.00;26.25;;;;;;;;4923051;28;45181;-76
2023/11/30 06:34:23;;;;;;;;;30.67;26.33;;;;;;;;4922666;28;45385;-74
2023/11/30 06:36:48;;;;;;;;;32.33;30.33;;;;;;;;4905053;28;45356;-75
2023/11/30 06:39:14;;;;;;;;;26.67;25.67;;;;;;;;4921687;28;45256;-75
2023/11/30 06:41:42;;;;;;;;;28.75;28.25;;;;;;;;4921671;28;45351;-75
2023/11/30 06:44:07;;;;;;;;;34.75;32.25;;;;;;;;4904097;28;47635;-75
2023/11/30 06:46:32;;;;;;;;;32.67;29.00;;;;;;;;4908255;28;45321;-76
2023/11/30 06:48:57;;;;;;;;;28.25;27.50;;;;;;;;4891466;29;45252;-76
2023/11/30 06:51:22;;;;;;;;;25.33;24.33;;;;;;;;4883309;29;45387;-75
2023/11/30 06:53:47;;;;;;;;;32.75;31.00;;;;;;;;4883430;29;46144;-75
2023/11/30 06:56:13;;;;;;;;;34.50;30.50;;;;;;;;4883483;29;45507;-76
2023/11/30 06:58:38;;;;;;;;;31.33;26.67;;;;;;;;4894527;29;45335;-75
2023/11/30 07:01:05;;;;;;;;;33.75;31.50;;;;;;;;4900588;29;45691;-76
2023/11/30 07:03:30;;;;;;;;;31.33;30.33;;;;;;;;4884791;29;45359;-75
2023/11/30 07:05:56;;;;;;;;;38.00;32.33;;;;;;;;4883184;29;45504;-77
2023/11/30 07:08:21;;;;;;;;;33.67;29.00;;;;;;;;4866337;29;45280;-75
2023/11/30 07:10:46;;;;;;;;;32.67;26.67;;;;;;;;4901661;29;45461;-76
2023/11/30 07:13:11;;;;;;;;;30.25;30.00;;;;;;;;4901402;29;45382;-75
2023/11/30 07:15:37;;;;;;;;;30.50;29.25;;;;;;;;4900810;29;45573;-77
2023/11/30 07:18:02;;;;;;;;;31.67;30.00;;;;;;;;4884594;29;45324;-77
2023/11/30 07:20:27;;;;;;;;;28.33;26.00;;;;;;;;4901347;29;45454;-76
2023/11/30 07:22:52;;;;;;;;;30.00;25.00;;;;;;;;4901866;29;45161;-75
2023/11/30 07:25:17;;;;;;;;;27.75;25.75;;;;;;;;4901634;29;45473;-75
2023/11/30 07:27:43;;;;;;;;;30.67;27.33;;;;;;;;4901494;29;45285;-75
2023/11/30 07:30:09;;;;;;;;;33.00;30.33;;;;;;;;4901797;29;45463;-75
2023/11/30 07:32:34;;;;;;;;;35.50;29.50;;;;;;;;4901737;29;45477;-75
2023/11/30 07:34:59;;;;;;;;;31.67;27.00;;;;;;;;4884443;29;45225;-74
2023/11/30 07:37:25;;;;;;;;;27.75;23.50;;;;;;;;4868497;29;1110296;-75
2023/11/30 07:39:50;;;;;;;;;27.33;25.00;;;;;;;;4885209;29;45422;-75
2023/11/30 07:42:16;;;;;;;;;34.25;29.25;;;;;;;;4885859;29;45361;-75
2023/11/30 07:44:42;;;;;;;;;30.00;26.00;;;;;;;;4902828;29;45611;-75
2023/11/30 07:47:07;;;;;;;;;50.75;44.75;;;;;;;;4900372;29;45320;-75
2023/11/30 07:49:32;;;;;;;;;29.25;26.50;;;;;;;;4903538;29;45317;-75
2023/11/30 07:51:57;;;;;;;;;39.25;35.00;;;;;;;;4902728;29;45307;-76
2023/11/30 07:54:22;;;;;;;;;30.50;25.50;;;;;;;;4909248;29;45418;-75
2023/11/30 07:56:48;;;;;;;;;33.33;31.33;;;;;;;;4918414;28;45340;-76
2023/11/30 07:59:13;;;;;;;;;30.33;27.00;;;;;;;;4932804;28;45381;-75
2023/11/30 08:01:39;;;;;;;;;27.50;26.25;;;;;;;;4931721;28;45348;-75
2023/11/30 08:04:04;;;;;;;;;32.33;31.00;;;;;;;;4914211;28;45396;-76
2023/11/30 08:06:29;;;;;;;;;25.50;22.75;;;;;;;;4936699;28;45317;-76
2023/11/30 08:08:54;;;;;;;;;31.33;29.67;;;;;;;;4933696;28;45276;-75
2023/11/30 08:11:20;;;;;;;;;29.33;28.33;;;;;;;;4928342;28;45304;-76
2023/11/30 08:13:45;;;;;;;;;29.67;27.67;;;;;;;;4934641;28;45272;-75
2023/11/30 08:16:10;;;;;;;;;24.33;24.33;;;;;;;;4934453;28;45327;-76
2023/11/30 08:18:35;;;;;;;;;32.33;28.00;;;;;;;;4934230;28;45418;-75
2023/11/30 08:21:02;;;;;;;;;31.00;29.67;;;;;;;;4928620;28;45397;-75
2023/11/30 08:23:27;;;;;;;;;31.25;26.75;;;;;;;;4932765;28;45328;-75
2023/11/30 08:25:53;;;;;;;;;33.75;28.25;;;;;;;;4880481;29;47019;-76
2023/11/30 08:28:18;;;;;;;;;31.33;26.33;;;;;;;;4912678;29;45930;-76
2023/11/30 08:30:43;;;;;;;;;29.67;27.67;;;;;;;;4894425;29;45408;-76
2023/11/30 08:33:09;;;;;;;;;30.67;29.33;;;;;;;;4885824;29;45781;-76
2023/11/30 08:35:34;;;;;;;;;26.00;24.00;;;;;;;;4919052;29;44845;-75
2023/11/30 08:37:59;;;;;;;;;30.00;26.00;;;;;;;;4897203;29;47231;-76
2023/11/30 08:40:24;;;;;;;;;30.50;28.75;;;;;;;;4908429;29;45303;-75
2023/11/30 08:42:49;;;;;;;;;29.67;29.67;;;;;;;;4905623;29;45168;-75
2023/11/30 08:45:15;;;;;;;;;35.80;28.40;;;;;;;;4900691;29;46126;-76
2023/11/30 08:47:42;;;;;;;;;27.75;23.75;;;;;;;;4911323;29;45472;-76
2023/11/30 08:50:07;;;;;;;;;31.00;30.25;;;;;;;;4918181;29;45283;-75
2023/11/30 08:52:32;;;;;;;;;31.75;29.00;;;;;;;;4918890;29;44650;-76
2023/11/30 08:54:57;;;;;;;;;33.67;29.67;;;;;;;;4900323;29;47249;-76
2023/11/30 08:57:23;;;;;;;;;32.67;30.67;;;;;;;;4910690;29;45350;-75
2023/11/30 08:59:49;;;;;;;;;35.25;32.25;;;;;;;;4891106;29;45729;-76
2023/11/30 09:02:14;;;;;;;;;30.00;29.00;;;;;;;;4916683;29;45342;-75
2023/11/30 09:04:40;;;;;;;;;33.33;29.67;;;;;;;;4909996;29;45356;-75
2023/11/30 09:07:05;;;;;;;;;39.75;36.25;;;;;;;;4905247;29;46299;-75
2023/11/30 09:09:30;;;;;;;;;36.50;30.50;;;;;;;;4905580;29;45332;-76
2023/11/30 09:11:56;;;;;;;;;33.25;30.75;;;;;;;;4905205;29;45344;-75
2023/11/30 09:14:21;;;;;;;;;31.00;28.33;;;;;;;;4885949;29;46934;-75
2023/11/30 09:16:46;;;;;;;;;34.00;31.00;;;;;;;;4903862;29;45344;-76
2023/11/30 09:19:11;;;;;;;;;30.67;26.67;;;;;;;;4884602;29;45364;-75
2023/11/30 09:21:37;;;;;;;;;28.00;24.33;;;;;;;;4886559;29;45490;-76
2023/11/30 09:24:04;;;;;;;;;26.67;24.67;;;;;;;;4904078;29;45505;-76
2023/11/30 09:26:31;;;;;;;;;40.00;32.75;;;;;;;;4905291;29;47002;-77
2023/11/30 09:28:56;;;;;;;;;34.00;31.25;;;;;;;;4905248;29;45391;-75
2023/11/30 09:31:21;;;;;;;;;27.50;27.50;;;;;;;;4906624;29;45355;-77
2023/11/30 09:33:47;;;;;;;;;32.67;26.67;;;;;;;;4908179;29;45244;-75
2023/11/30 09:36:12;;;;;;;;;29.33;27.00;;;;;;;;4877086;29;46394;-75
2023/11/30 09:38:37;;;;;;;;;33.25;31.50;;;;;;;;4898638;29;45205;-78
2023/11/30 09:41:06;;;;;;;;;28.00;24.67;;;;;;;;4897425;29;45305;-76
2023/11/30 09:43:32;;;;;;;;;31.00;31.00;;;;;;;;4886315;29;45326;-77
2023/11/30 09:45:57;;;;;;;;;26.33;26.00;;;;;;;;4878776;29;47227;-76
2023/11/30 09:48:23;;;;;;;;;33.67;27.33;;;;;;;;4903020;29;45851;-77
2023/11/30 09:50:48;;;;;;;;;29.33;28.33;;;;;;;;4904370;29;45554;-78
2023/11/30 09:53:13;;;;;;;;;26.00;25.00;;;;;;;;4898246;29;45460;-77
2023/11/30 09:55:38;;;;;;;;;32.00;32.00;;;;;;;;4904227;29;45277;-78
2023/11/30 09:58:04;;;;;;;;;27.67;24.33;;;;;;;;4895029;28;46079;-77
2023/11/30 10:00:29;;;;;;;;;27.33;26.00;;;;;;;;4881289;29;45480;-77
2023/11/30 10:02:55;;;;;;;;;29.33;25.67;;;;;;;;4894490;29;45332;-78
2023/11/30 10:05:20;;;;;;;;;27.67;26.67;;;;;;;;4875872;29;47975;-78
2023/11/30 10:07:46;;;;;;;;;28.67;25.67;;;;;;;;4906952;29;45242;-77
2023/11/30 10:10:11;;;;;;;;;29.33;27.67;;;;;;;;4914228;29;45269;-77
2023/11/30 10:12:36;;;;;;;;;33.00;27.67;;;;;;;;4909526;29;45254;-76
2023/11/30 10:15:01;;;;;;;;;30.33;28.00;;;;;;;;4904490;29;46460;-75
2023/11/30 10:17:27;;;;;;;;;26.00;23.33;;;;;;;;4877057;29;45267;-76
2023/11/30 10:19:54;;;;;;;;;27.33;25.00;;;;;;;;4887103;29;45306;-77
2023/11/30 10:22:20;;;;;;;;;26.00;23.00;;;;;;;;4884925;29;45429;-76
2023/11/30 10:24:45;;;;;;;;;23.00;22.00;;;;;;;;4885570;29;46855;-75
2023/11/30 10:27:13;;;;;;;;;23.00;21.00;;;;;;;;4887233;29;45429;-76
2023/11/30 10:29:41;;;;;;;;;23.33;23.00;;;;;;;;4885241;29;45360;-75
2023/11/30 10:32:07;;;;;;;;;23.00;20.33;;;;;;;;4884944;29;45539;-76
2023/11/30 10:34:36;;;;;;;;;27.00;25.33;;;;;;;;4885058;29;45277;-78
2023/11/30 10:37:02;;;;;;;;;26.00;22.33;;;;;;;;4902716;29;45361;-77
2023/11/30 10:39:32;;;;;;;;;23.00;22.00;;;;;;;;4907694;28;45677;-76
2023/11/30 10:41:59;;;;;;;;;23.00;19.67;;;;;;;;4897536;29;45498;-76
2023/11/30 10:44:27;;;;;;;;;24.67;22.00;;;;;;;;4884340;29;45960;-75
2023/11/30 10:46:54;;;;;;;;;24.00;21.00;;;;;;;;4884388;29;45338;-76
2023/11/30 10:49:21;;;;;;;;;22.67;21.00;;;;;;;;4870093;29;45375;-75
2023/11/30 10:51:46;;;;;;;;;24.33;22.67;;;;;;;;4892979;29;45735;-76
2023/11/30 10:54:21;;;;;;;;;26.33;21.67;;;;;;;;4892574;29;45269;-76
2023/11/30 10:56:46;;;;;;;;;24.33;23.00;;;;;;;;4899061;28;45438;-76
2023/11/30 10:59:12;;;;;;;;;23.00;21.67;;;;;;;;4903780;29;45322;-78
2023/11/30 11:01:37;;;;;;;;;21.33;18.00;;;;;;;;4885849;29;46096;-76
2023/11/30 11:04:06;;;;;;;;;21.67;20.33;;;;;;;;4903812;29;45359;-76
2023/11/30 11:06:32;;;;;;;;;18.67;17.67;;;;;;;;4903257;29;45426;-77
2023/11/30 11:09:01;;;;;;;;;19.67;19.67;;;;;;;;4903625;29;45436;-76
2023/11/30 11:11:27;;;;;;;;;22.00;20.00;;;;;;;;4902051;29;45818;-76
2023/11/30 11:13:52;;;;;;;;;24.00;20.00;;;;;;;;4899901;29;46519;-76
2023/11/30 11:16:17;;;;;;;;;22.00;21.00;;;;;;;;4902387;29;45325;-76
2023/11/30 11:18:44;;;;;;;;;22.67;20.67;;;;;;;;4885582;29;45392;-76
2023/11/30 11:21:23;;;;;;;;;25.67;21.00;;;;;;;;4905288;29;45474;-78
2023/11/30 11:23:48;;;;;;;;;20.00;19.67;;;;;;;;4911173;29;46543;-78
2023/11/30 11:26:13;;;;;;;;;20.33;18.00;;;;;;;;4907875;29;45491;-78
2023/11/30 11:28:40;;;;;;;;;25.33;24.33;;;;;;;;4914997;29;45411;-78
2023/11/30 11:31:05;;;;;;;;;19.00;19.00;;;;;;;;4896044;29;46384;-78
2023/11/30 11:33:30;;;;;;;;;23.67;23.67;;;;;;;;4888447;29;47138;-76
2023/11/30 11:35:57;;;;;;;;;18.33;18.33;;;;;;;;4902877;29;45305;-76
2023/11/30 11:38:22;;;;;;;;;20.00;20.00;;;;;;;;4889476;29;45526;-78
2023/11/30 11:40:47;;;;;;;;;24.33;23.67;;;;;;;;4907904;29;45539;-78
2023/11/30 11:43:12;;;;;;;;;18.33;18.33;;;;;;;;4914243;29;46517;-78
2023/11/30 11:45:39;;;;;;;;;21.33;19.67;;;;;;;;4908528;29;45326;-78
2023/11/30 11:48:04;;;;;;;;;19.33;18.00;;;;;;;;4880473;29;45372;-77
2023/11/30 11:50:29;;;;;;;;;19.00;15.33;;;;;;;;4886902;29;45424;-77
2023/11/30 11:52:59;;;;;;;;;20.33;19.33;;;;;;;;4886954;29;46153;-75
2023/11/30 11:55:24;;;;;;;;;9.67;7.33;;;;;;;;4904000;28;45164;-78
2023/11/30 11:57:51;;;;;;;;;18.00;18.00;;;;;;;;4886736;29;45248;-77
2023/11/30 12:00:17;;;;;;;;;20.00;16.33;;;;;;;;4892453;29;45669;-77
2023/11/30 12:02:43;;;;;;;;;22.00;18.67;;;;;;;;4896732;29;46223;-76
2023/11/30 12:05:12;;;;;;;;;24.00;18.67;;;;;;;;4898424;29;45896;-76
2023/11/30 12:08:07;;;;;;;;;19.67;17.67;;;;;;;;4894439;29;45360;-76
2023/11/30 12:10:35;;;;;;;;;10.00;9.00;;;;;;;;4863472;29;47271;-75
2023/11/30 12:13:01;;;;;;;;;13.67;13.00;;;;;;;;4898076;29;45802;-78
2023/11/30 12:15:27;;;;;;;;;15.33;11.67;;;;;;;;4891585;29;45365;-78
2023/11/30 12:17:53;;;;;;;;;18.00;15.00;;;;;;;;4907790;29;45404;-78
2023/11/30 12:20:18;;;;;;;;;12.67;11.00;;;;;;;;4906992;29;45342;-77
2023/11/30 12:22:44;;;;;;;;;14.00;12.00;;;;;;;;4911993;29;45321;-79
2023/11/30 12:25:09;;;;;;;;;13.33;13.00;;;;;;;;4914973;29;45520;-78
2023/11/30 12:27:34;;;;;;;;;13.67;12.67;;;;;;;;4896135;29;45457;-79
2023/11/30 12:29:59;;;;;;;;;14.33;14.33;;;;;;;;4899222;29;45450;-78
2023/11/30 12:32:25;;;;;;;;;15.00;14.67;;;;;;;;4900013;29;46793;-77
2023/11/30 12:34:50;;;;;;;;;14.33;13.00;;;;;;;;4897257;28;45508;-78
2023/11/30 12:37:15;;;;;;;;;8.67;8.67;;;;;;;;4887497;29;45492;-78
2023/11/30 12:39:40;;;;;;;;;11.00;10.00;;;;;;;;4910355;29;45417;-77
2023/11/30 12:42:05;;;;;;;;;7.67;7.00;;;;;;;;4897280;29;46299;-78
2023/11/30 12:44:33;;;;;;;;;6.67;6.00;;;;;;;;4890533;29;45311;-78
2023/11/30 12:46:59;;;;;;;;;7.00;7.00;;;;;;;;4883515;29;45331;-78
2023/11/30 12:49:24;;;;;;;;;7.67;7.67;;;;;;;;4915503;29;45304;-78
2023/11/30 12:51:49;;;;;;;;;9.00;8.00;;;;;;;;4894622;29;46941;-78
2023/11/30 12:54:14;;;;;;;;;7.33;7.00;;;;;;;;4894817;29;45302;-77
2023/11/30 12:56:42;;;;;;;;;9.00;9.00;;;;;;;;4911119;28;45570;-78
2023/11/30 12:59:07;;;;;;;;;8.00;8.00;;;;;;;;4925125;28;45661;-78
2023/11/30 13:01:32;;;;;;;;;9.00;6.00;;;;;;;;4926810;28;45375;-78
2023/11/30 13:03:58;;;;;;;;;9.00;7.00;;;;;;;;4925159;28;45298;-76
2023/11/30 13:06:23;;;;;;;;;7.67;6.33;;;;;;;;4924083;28;45584;-77
2023/11/30 13:08:48;;;;;;;;;6.00;6.00;;;;;;;;4894104;29;47321;-78
2023/11/30 13:11:14;;;;;;;;;8.50;8.50;;;;;;;;4906208;29;47003;-78
2023/11/30 13:13:39;;;;;;;;;8.00;8.00;;;;;;;;4889137;29;45479;-78
2023/11/30 13:16:06;;;;;;;;;6.00;6.00;;;;;;;;4888675;29;45367;-78
2023/11/30 13:18:31;;;;;;;;;11.00;9.33;;;;;;;;4905182;29;45290;-77
2023/11/30 13:20:56;;;;;;;;;7.00;7.00;;;;;;;;4906033;29;45890;-78
2023/11/30 13:23:22;;;;;;;;;10.33;9.00;;;;;;;;4889889;29;45442;-78
2023/11/30 13:25:47;;;;;;;;;7.00;5.00;;;;;;;;4890635;29;45427;-78
2023/11/30 13:28:12;;;;;;;;;7.00;7.00;;;;;;;;4891808;29;47038;-78
2023/11/30 13:30:38;;;;;;;;;8.67;6.33;;;;;;;;4910156;29;46062;-77
2023/11/30 13:33:04;;;;;;;;;8.33;8.00;;;;;;;;4901095;29;45281;-77
2023/11/30 13:35:29;;;;;;;;;10.00;6.67;;;;;;;;4906512;29;45582;-77
2023/11/30 13:37:57;;;;;;;;;8.33;6.00;;;;;;;;4893752;29;46136;-78
2023/11/30 13:40:23;;;;;;;;;9.67;8.33;;;;;;;;4917768;29;45277;-79
2023/11/30 13:42:48;;;;;;;;;9.33;8.00;;;;;;;;4891659;29;45669;-79
2023/11/30 13:45:14;;;;;;;;;10.00;8.00;;;;;;;;4911529;29;45815;-78
2023/11/30 13:47:40;;;;;;;;;5.33;5.33;;;;;;;;4887900;29;47339;-77
2023/11/30 13:50:05;;;;;;;;;6.67;6.67;;;;;;;;4903104;29;46263;-78
2023/11/30 13:52:30;;;;;;;;;6.00;6.00;;;;;;;;4903558;29;45404;-78
2023/11/30 13:54:57;;;;;;;;;8.00;8.00;;;;;;;;4904136;29;45358;-78
2023/11/30 13:57:22;;;;;;;;;8.00;8.00;;;;;;;;4901583;28;46655;-77
2023/11/30 13:59:47;;;;;;;;;8.67;7.67;;;;;;;;4928910;28;45458;-78
2023/11/30 14:02:12;;;;;;;;;7.33;7.00;;;;;;;;4903637;28;45239;-78
2023/11/30 14:04:37;;;;;;;;;6.00;6.00;;;;;;;;4879154;29;45628;-78
2023/11/30 14:07:03;;;;;;;;;6.00;6.00;;;;;;;;4890000;29;45464;-79
2023/11/30 14:09:29;;;;;;;;;4.00;3.00;;;;;;;;4889756;29;47254;-77